createdAt,value
2019-04-30T00:00:20.357Z,4.27
2019-04-30T00:03:41.594Z,4.17
2019-04-30T00:06:45.606Z,3.90
2019-04-30T00:09:54.058Z,4.23
2019-04-30T00:12:55.531Z,4.07
2019-04-30T00:16:01.607Z,4.10
2019-04-30T00:19:06.156Z,3.70
2019-04-30T00:22:10.409Z,3.67
2019-04-30T00:25:15.293Z,3.57
2019-04-30T00:28:19.540Z,3.63
2019-04-30T00:31:25.679Z,3.90
2019-04-30T00:34:30.941Z,4.03
2019-04-30T00:37:35.258Z,4.00
2019-04-30T00:40:39.171Z,3.50
2019-04-30T00:43:49.308Z,3.80
2019-04-30T00:46:48.292Z,3.60
2019-04-30T00:49:56.323Z,3.87
2019-04-30T00:52:57.898Z,3.70
2019-04-30T00:56:01.951Z,3.97
2019-04-30T00:59:07.181Z,3.90
2019-04-30T01:02:31.923Z,3.97
2019-04-30T01:05:33.008Z,4.43
2019-04-30T01:08:36.682Z,3.87
2019-04-30T01:11:46.766Z,3.70
2019-04-30T01:14:45.999Z,3.80
2019-04-30T01:17:53.609Z,3.87
2019-04-30T01:20:55.560Z,3.80
2019-04-30T01:23:59.579Z,4.10
2019-04-30T01:27:06.718Z,4.03
2019-04-30T01:30:13.258Z,3.43
2019-04-30T01:33:15.704Z,4.07
2019-04-30T01:36:19.397Z,3.70
2019-04-30T01:39:23.770Z,3.67
2019-04-30T01:42:28.566Z,4.20
2019-04-30T01:45:32.505Z,4.30
2019-04-30T01:48:36.177Z,3.90
2019-04-30T01:51:39.860Z,3.83
2019-04-30T01:54:43.556Z,3.93
2019-04-30T01:57:59.237Z,4.50
2019-04-30T02:01:06.967Z,4.00
2019-04-30T02:04:10.656Z,3.87
2019-04-30T02:07:14.363Z,4.07
2019-04-30T02:10:18.770Z,3.87
2019-04-30T02:13:22.434Z,4.00
2019-04-30T02:16:26.133Z,4.20
2019-04-30T02:19:31.232Z,3.93
2019-04-30T02:22:34.969Z,3.90
2019-04-30T02:25:39.916Z,3.90
2019-04-30T02:28:43.728Z,4.20
2019-04-30T02:31:50.114Z,4.17
2019-04-30T02:35:01.915Z,3.87
2019-04-30T02:38:12.129Z,4.07
2019-04-30T02:41:19.263Z,4.43
2019-04-30T02:44:24.236Z,3.63
2019-04-30T02:47:30.894Z,4.07
2019-04-30T02:50:35.743Z,4.10
2019-04-30T02:54:23.699Z,4.40
2019-04-30T02:57:25.169Z,4.23
2019-04-30T03:00:32.544Z,4.53
2019-04-30T03:03:34.295Z,4.07
2019-04-30T03:06:40.285Z,4.13
2019-04-30T03:09:44.390Z,4.27
2019-04-30T03:12:49.888Z,4.37
2019-04-30T03:15:53.497Z,4.30
2019-04-30T03:19:19.661Z,4.30
2019-04-30T03:22:25.790Z,4.60
2019-04-30T03:25:29.862Z,4.83
2019-04-30T03:28:34.080Z,4.60
2019-04-30T03:31:42.852Z,4.40
2019-04-30T03:34:43.562Z,4.47
2019-04-30T03:37:49.550Z,4.30
2019-04-30T03:40:52.644Z,4.33
2019-04-30T03:43:56.612Z,4.40
2019-04-30T03:47:00.306Z,4.60
2019-04-30T03:50:04.395Z,4.60
2019-04-30T03:53:10.456Z,5.03
2019-04-30T03:56:13.910Z,4.60
2019-04-30T03:59:19.925Z,4.90
2019-04-30T04:02:40.709Z,4.47
2019-04-30T04:05:51.784Z,4.50
2019-04-30T04:09:00.672Z,4.00
2019-04-30T04:12:23.265Z,4.83
2019-04-30T04:15:26.967Z,4.77
2019-04-30T04:18:30.643Z,4.87
2019-04-30T04:21:34.334Z,4.23
2019-04-30T04:24:40.096Z,4.00
2019-04-30T04:27:43.454Z,4.60
2019-04-30T04:30:50.293Z,4.60
2019-04-30T04:33:52.989Z,4.87
2019-04-30T04:36:56.692Z,4.80
2019-04-30T04:40:00.407Z,4.93
2019-04-30T04:43:04.193Z,5.00
2019-04-30T04:46:09.232Z,4.93
2019-04-30T04:49:13.147Z,5.90
2019-04-30T04:52:17.239Z,5.10
2019-04-30T04:55:22.248Z,5.00
2019-04-30T04:58:26.491Z,6.20
2019-04-30T05:01:30.206Z,5.97
2019-04-30T05:04:34.168Z,6.23
2019-04-30T05:07:39.975Z,7.37
2019-04-30T05:10:43.895Z,6.23
2019-04-30T05:13:48.995Z,7.50
2019-04-30T05:16:53.029Z,7.97
2019-04-30T05:19:58.678Z,8.83
2019-04-30T05:23:02.574Z,9.20
2019-04-30T05:26:08.453Z,10.37
2019-04-30T05:29:12.037Z,10.77
2019-04-30T05:32:15.816Z,11.00
2019-04-30T05:35:19.564Z,11.53
2019-04-30T05:38:23.266Z,11.13
2019-04-30T05:41:28.796Z,12.10
2019-04-30T05:44:32.453Z,14.47
2019-04-30T05:47:36.156Z,13.00
2019-04-30T05:50:39.870Z,16.13
2019-04-30T05:53:43.570Z,18.23
2019-04-30T05:56:47.279Z,16.90
2019-04-30T05:59:51.267Z,17.60
2019-04-30T06:02:55.323Z,16.60
2019-04-30T06:05:59.055Z,17.67
2019-04-30T06:09:14.766Z,16.83
2019-04-30T06:12:36.418Z,16.77
2019-04-30T06:15:48.991Z,17.77
2019-04-30T06:18:52.859Z,16.70
2019-04-30T06:22:05.815Z,17.20
2019-04-30T06:25:02.002Z,16.37
2019-04-30T06:28:05.772Z,16.57
2019-04-30T06:31:09.552Z,16.30
2019-04-30T06:34:13.589Z,16.07
2019-04-30T06:37:19.297Z,17.77
2019-04-30T06:40:23.322Z,15.70
2019-04-30T06:43:28.755Z,15.27
2019-04-30T06:46:32.809Z,17.60
2019-04-30T06:49:39.093Z,15.43
2019-04-30T06:52:53.756Z,15.70
2019-04-30T06:55:49.278Z,16.57
2019-04-30T06:58:53.416Z,16.57
2019-04-30T07:01:58.964Z,15.93
2019-04-30T07:05:02.749Z,17.90
2019-04-30T07:08:36.391Z,15.77
2019-04-30T07:11:33.635Z,15.70
2019-04-30T07:14:39.995Z,15.13
2019-04-30T07:17:43.090Z,17.17
2019-04-30T07:20:48.499Z,16.57
2019-04-30T07:23:52.540Z,17.10
2019-04-30T07:27:01.030Z,16.77
2019-04-30T07:30:39.569Z,16.57
2019-04-30T07:33:43.394Z,16.37
2019-04-30T07:36:55.149Z,14.23
2019-04-30T07:39:52.644Z,17.60
2019-04-30T07:42:58.932Z,16.67
2019-04-30T07:46:02.284Z,15.63
2019-04-30T07:49:05.988Z,16.57
2019-04-30T07:52:11.585Z,16.17
2019-04-30T07:55:15.392Z,13.97
2019-04-30T07:58:20.420Z,14.93
2019-04-30T08:01:24.472Z,14.07
2019-04-30T08:05:02.377Z,14.93
2019-04-30T08:08:20.126Z,15.90
2019-04-30T08:11:23.120Z,16.23
2019-04-30T08:14:18.488Z,16.40
2019-04-30T08:17:22.723Z,15.37
2019-04-30T08:20:26.433Z,15.17
2019-04-30T08:23:34.864Z,15.63
2019-04-30T08:26:35.660Z,17.17
2019-04-30T08:29:39.565Z,14.33
2019-04-30T08:32:43.336Z,13.57
2019-04-30T08:35:47.312Z,13.77
2019-04-30T08:38:51.032Z,12.57
2019-04-30T08:41:55.005Z,13.87
2019-04-30T08:44:58.876Z,12.70
2019-04-30T08:48:02.588Z,11.57
2019-04-30T08:51:06.458Z,11.80
2019-04-30T08:54:10.163Z,11.80
2019-04-30T08:57:13.881Z,11.47
2019-04-30T09:00:19.489Z,11.80
2019-04-30T09:03:23.514Z,11.30
2019-04-30T09:06:28.956Z,12.10
2019-04-30T09:09:33.336Z,11.67
2019-04-30T09:12:37.056Z,11.83
2019-04-30T09:15:40.764Z,10.93
2019-04-30T09:18:44.485Z,11.17
2019-04-30T09:21:48.888Z,10.53
2019-04-30T09:24:52.776Z,9.37
2019-04-30T09:27:56.487Z,10.80
2019-04-30T09:31:00.184Z,11.00
2019-04-30T09:34:14.336Z,9.53
2019-04-30T09:37:09.421Z,10.10
2019-04-30T09:40:17.957Z,8.97
2019-04-30T09:43:18.913Z,9.57
2019-04-30T09:46:27.047Z,9.50
2019-04-30T09:49:29.435Z,10.17
2019-04-30T09:52:35.903Z,10.50
2019-04-30T09:55:40.542Z,9.17
2019-04-30T09:58:44.385Z,9.10
2019-04-30T10:01:48.220Z,9.73
2019-04-30T10:04:52.351Z,8.20
2019-04-30T10:07:56.593Z,10.10
2019-04-30T10:11:25.310Z,8.63
2019-04-30T10:14:29.017Z,8.67
2019-04-30T10:17:40.628Z,8.27
2019-04-30T10:20:45.119Z,9.13
2019-04-30T10:23:49.929Z,8.90
2019-04-30T10:26:53.722Z,7.80
2019-04-30T10:29:59.265Z,8.20
2019-04-30T10:33:03.017Z,8.07
2019-04-30T10:36:06.795Z,7.47
2019-04-30T10:39:11.092Z,7.43
2019-04-30T10:42:14.756Z,8.10
2019-04-30T10:45:18.811Z,7.20
2019-04-30T10:48:22.508Z,7.10
2019-04-30T10:51:26.452Z,6.63
2019-04-30T10:54:30.484Z,6.87
2019-04-30T10:57:34.199Z,7.27
2019-04-30T11:00:40.232Z,6.80
2019-04-30T11:03:43.914Z,8.10
2019-04-30T11:06:47.767Z,7.20
2019-04-30T11:09:51.867Z,7.93
2019-04-30T11:12:55.551Z,7.63
2019-04-30T11:16:11.877Z,8.70
2019-04-30T11:19:05.069Z,7.10
2019-04-30T11:22:09.083Z,6.78
2019-04-30T11:25:13.394Z,6.77
2019-04-30T11:28:17.805Z,7.08
2019-04-30T11:31:46.490Z,7.25
2019-04-30T11:34:50.406Z,7.97
2019-04-30T11:37:54.186Z,8.25
2019-04-30T11:40:59.143Z,7.05
2019-04-30T11:44:02.839Z,7.35
2019-04-30T11:47:29.124Z,6.92
2019-04-30T11:50:33.153Z,8.00
2019-04-30T11:53:38.920Z,8.10
2019-04-30T11:56:42.426Z,6.83
2019-04-30T11:59:46.598Z,7.47
2019-04-30T12:02:52.807Z,7.33
2019-04-30T12:05:55.766Z,7.15
2019-04-30T12:09:09.683Z,7.30
2019-04-30T12:12:13.383Z,7.85
2019-04-30T12:15:19.101Z,7.45
2019-04-30T12:18:22.904Z,7.20
2019-04-30T12:21:26.870Z,7.55
2019-04-30T12:24:30.577Z,7.50
2019-04-30T12:27:34.647Z,8.43
2019-04-30T12:30:39.130Z,7.72
2019-04-30T12:33:42.964Z,7.45
2019-04-30T12:36:46.640Z,6.65
2019-04-30T12:39:50.335Z,7.15
2019-04-30T12:42:54.028Z,6.40
2019-04-30T12:46:04.895Z,6.55
2019-04-30T12:49:11.454Z,6.67
2019-04-30T12:52:19.970Z,7.58
2019-04-30T12:55:41.215Z,7.70
2019-04-30T12:58:44.914Z,7.00
2019-04-30T13:01:49.552Z,6.93
2019-04-30T13:04:53.288Z,6.93
2019-04-30T13:07:59.915Z,6.93
2019-04-30T13:11:03.355Z,6.40
2019-04-30T13:14:10.111Z,7.10
2019-04-30T13:17:12.855Z,7.47
2019-04-30T13:20:20.850Z,7.40
2019-04-30T13:23:22.545Z,7.90
2019-04-30T13:26:26.249Z,7.33
2019-04-30T13:29:35.106Z,7.30
2019-04-30T13:32:45.462Z,8.43
2019-04-30T13:35:49.239Z,8.43
2019-04-30T13:39:01.923Z,9.37
2019-04-30T13:42:17.667Z,8.23
2019-04-30T13:45:15.531Z,12.83
2019-04-30T13:48:19.907Z,14.27
2019-04-30T13:51:23.608Z,14.17
2019-04-30T13:54:27.324Z,15.03
2019-04-30T13:57:31.020Z,15.17
2019-04-30T14:00:34.793Z,16.50
2019-04-30T14:03:44.756Z,14.20
2019-04-30T14:07:06.361Z,13.53
2019-04-30T14:10:10.488Z,12.83
2019-04-30T14:13:14.299Z,15.50
2019-04-30T14:16:18.073Z,16.80
2019-04-30T14:19:21.861Z,16.40
2019-04-30T14:22:25.561Z,16.60
2019-04-30T14:25:29.445Z,19.07
2019-04-30T14:28:33.507Z,18.00
2019-04-30T14:31:38.810Z,22.53
2019-04-30T14:34:43.109Z,19.80
2019-04-30T14:37:46.970Z,17.93
2019-04-30T14:40:51.665Z,19.40
2019-04-30T14:44:02.160Z,18.27
2019-04-30T14:47:14.218Z,18.57
2019-04-30T14:50:19.568Z,20.20
2019-04-30T14:53:32.592Z,19.23
2019-04-30T14:56:41.418Z,17.93
2019-04-30T15:00:06.031Z,18.90
2019-04-30T15:03:11.670Z,17.67
2019-04-30T15:06:15.460Z,20.53
2019-04-30T15:09:20.041Z,18.77
2019-04-30T15:12:23.820Z,19.93
2019-04-30T15:15:29.236Z,21.67
2019-04-30T15:18:33.283Z,17.97
2019-04-30T15:21:36.999Z,19.20
2019-04-30T15:24:40.788Z,21.60
2019-04-30T15:27:47.642Z,18.60
2019-04-30T15:30:50.719Z,18.60
2019-04-30T15:34:03.063Z,19.17
2019-04-30T15:37:18.518Z,20.23
2019-04-30T15:40:11.828Z,18.47
2019-04-30T15:43:15.535Z,17.97
2019-04-30T15:46:19.314Z,20.37
2019-04-30T15:49:23.068Z,17.83
2019-04-30T15:52:28.797Z,17.13
2019-04-30T15:55:32.257Z,17.00
2019-04-30T15:58:38.899Z,18.10
2019-04-30T16:01:43.760Z,19.10
2019-04-30T16:05:06.493Z,18.67
2019-04-30T16:08:41.760Z,20.43
2019-04-30T16:11:54.124Z,18.33
2019-04-30T16:14:57.824Z,18.53
2019-04-30T16:18:02.119Z,21.23
2019-04-30T16:21:05.819Z,19.17
2019-04-30T16:24:09.772Z,21.20
2019-04-30T16:27:13.471Z,21.97
2019-04-30T16:30:19.553Z,23.13
2019-04-30T16:33:23.416Z,20.00
2019-04-30T16:36:29.036Z,20.87
2019-04-30T16:39:32.825Z,19.43
2019-04-30T16:42:38.918Z,18.33
2019-04-30T16:45:42.605Z,19.30
2019-04-30T16:48:46.635Z,19.60
2019-04-30T16:51:50.468Z,19.50
2019-04-30T16:54:54.181Z,19.33
2019-04-30T16:57:58.548Z,20.83
2019-04-30T17:01:04.053Z,19.87
2019-04-30T17:04:16.180Z,19.37
2019-04-30T17:07:30.895Z,19.60
2019-04-30T17:10:41.051Z,20.03
2019-04-30T17:13:51.733Z,21.03
2019-04-30T17:16:55.432Z,20.83
2019-04-30T17:19:59.141Z,20.60
2019-04-30T17:23:02.845Z,20.47
2019-04-30T17:26:06.881Z,22.30
2019-04-30T17:29:10.589Z,20.23
2019-04-30T17:32:14.292Z,20.53
2019-04-30T17:35:19.033Z,20.83
2019-04-30T17:38:22.928Z,20.10
2019-04-30T17:41:26.637Z,19.93
2019-04-30T17:44:30.350Z,20.27
2019-04-30T17:47:34.310Z,20.17
2019-04-30T17:50:39.619Z,20.60
2019-04-30T17:54:01.368Z,20.73
2019-04-30T17:57:05.413Z,21.00
2019-04-30T18:00:18.925Z,20.60
2019-04-30T18:03:18.959Z,20.60
2019-04-30T18:06:22.873Z,22.53
2019-04-30T18:09:26.677Z,22.17
2019-04-30T18:12:30.805Z,22.90
2019-04-30T18:15:34.525Z,22.63
2019-04-30T18:18:51.214Z,22.03
2019-04-30T18:21:59.678Z,23.30
2019-04-30T18:25:20.720Z,21.33
2019-04-30T18:28:24.705Z,22.87
2019-04-30T18:31:29.811Z,22.23
2019-04-30T18:34:33.615Z,22.30
2019-04-30T18:37:38.708Z,22.43
2019-04-30T18:40:42.517Z,25.57
2019-04-30T18:43:48.736Z,26.03
2019-04-30T18:46:52.758Z,23.83
2019-04-30T18:49:56.465Z,26.80
2019-04-30T18:53:02.708Z,24.53
2019-04-30T18:56:09.960Z,29.80
2019-04-30T18:59:11.945Z,27.37
2019-04-30T19:02:15.715Z,27.93
2019-04-30T19:05:25.730Z,23.50
2019-04-30T19:08:35.040Z,23.27
2019-04-30T19:11:54.357Z,23.73
2019-04-30T19:15:08.149Z,25.43
2019-04-30T19:18:25.922Z,25.50
2019-04-30T19:21:30.108Z,25.73
2019-04-30T19:24:33.808Z,24.43
2019-04-30T19:27:37.514Z,25.37
2019-04-30T19:30:41.374Z,25.50
2019-04-30T19:33:45.391Z,24.87
2019-04-30T19:36:49.351Z,23.70
2019-04-30T19:39:53.132Z,24.40
2019-04-30T19:42:56.845Z,24.53
2019-04-30T19:46:00.835Z,26.23
2019-04-30T19:49:04.718Z,24.53
2019-04-30T19:52:11.125Z,24.07
2019-04-30T19:55:13.937Z,24.13
2019-04-30T19:58:27.753Z,25.50
2019-04-30T20:01:23.070Z,24.97
2019-04-30T20:04:33.048Z,24.70
2019-04-30T20:07:32.217Z,25.07
2019-04-30T20:10:35.942Z,25.73
2019-04-30T20:13:40.524Z,26.63
2019-04-30T20:16:44.211Z,26.67
2019-04-30T20:19:48.926Z,26.83
2019-04-30T20:22:52.981Z,27.00
2019-04-30T20:25:56.678Z,32.73
2019-04-30T20:29:00.715Z,28.07
2019-04-30T20:32:04.483Z,28.33
2019-04-30T20:35:09.756Z,26.87
2019-04-30T20:38:22.115Z,28.63
2019-04-30T20:41:28.611Z,26.60
2019-04-30T20:44:32.396Z,24.47
2019-04-30T20:47:36.097Z,27.50
2019-04-30T20:50:39.809Z,25.17
2019-04-30T20:53:43.516Z,29.27
2019-04-30T20:56:48.347Z,28.33
2019-04-30T20:59:52.902Z,25.13
2019-04-30T21:02:56.685Z,26.37
2019-04-30T21:06:00.692Z,28.27
2019-04-30T21:09:06.150Z,27.20
2019-04-30T21:12:09.845Z,29.77
2019-04-30T21:15:13.933Z,27.17
2019-04-30T21:18:19.387Z,28.50
2019-04-30T21:21:23.109Z,26.87
2019-04-30T21:24:26.819Z,27.23
2019-04-30T21:27:30.632Z,27.83
2019-04-30T21:30:34.407Z,28.57
2019-04-30T21:33:43.124Z,28.27
2019-04-30T21:36:46.860Z,30.67
2019-04-30T21:39:50.587Z,35.13
2019-04-30T21:42:54.284Z,32.27
2019-04-30T21:45:59.411Z,28.27
2019-04-30T21:49:03.189Z,30.50
2019-04-30T21:52:06.887Z,32.67
2019-04-30T21:55:12.499Z,29.33
2019-04-30T21:58:16.285Z,34.73
2019-04-30T22:01:24.708Z,36.87
2019-04-30T22:04:28.513Z,40.17
2019-04-30T22:07:32.308Z,38.00
2019-04-30T22:10:36.340Z,44.67
2019-04-30T22:13:43.106Z,39.60
2019-04-30T22:16:46.446Z,40.43
2019-04-30T22:19:51.711Z,39.90
2019-04-30T22:22:55.612Z,39.67
2019-04-30T22:25:59.949Z,43.77
2019-04-30T22:29:03.857Z,37.77
2019-04-30T22:32:09.238Z,38.73
2019-04-30T22:35:31.276Z,35.50
2019-04-30T22:38:39.132Z,35.37
2019-04-30T22:41:42.951Z,36.33
2019-04-30T22:44:46.843Z,34.97
2019-04-30T22:47:50.579Z,35.60
2019-04-30T22:50:54.305Z,38.67
2019-04-30T22:53:58.109Z,40.87
2019-04-30T22:57:01.816Z,35.43
2019-04-30T23:00:09.704Z,35.40
2019-04-30T23:03:20.090Z,34.80
2019-04-30T23:06:24.230Z,34.40
2019-04-30T23:09:27.933Z,32.23
2019-04-30T23:12:31.714Z,29.47
2019-04-30T23:15:36.037Z,33.70
2019-04-30T23:18:39.736Z,31.57
2019-04-30T23:21:43.476Z,27.70
2019-04-30T23:24:47.472Z,29.33
2019-04-30T23:27:51.277Z,30.03
2019-04-30T23:30:55.060Z,27.43
2019-04-30T23:33:58.818Z,29.10
2019-04-30T23:37:02.890Z,28.13
2019-04-30T23:40:31.054Z,27.13
2019-04-30T23:43:34.775Z,26.90
2019-04-30T23:46:38.508Z,26.70
2019-04-30T23:49:42.289Z,26.20
2019-04-30T23:52:46.611Z,27.60
2019-04-30T23:55:50.382Z,26.40
2019-04-30T23:58:54.205Z,25.77
